Time;durP1;ratioP1;P1;durP2;ratioP2;P2;SDS_P1;SDS_P2;PMS_P1;PMS_P2;Temp;Humidity;BMP_temperature;BMP_pressure;BME280_temperature;BME280_humidity;BME280_pressure;Samples;Min_cycle;Max_cycle;Signal;HPM_P1;HPM_P2
2021/04/04 00:00:15;;;;;;;22.90;3.97;;;10.70;50.80;;;;;;5007516;28;20034;-64
2021/04/04 00:02:44;;;;;;;27.80;4.68;;;10.80;50.80;;;;;;5016857;28;20041;-63
2021/04/04 00:05:10;;;;;;;28.05;4.18;;;10.70;50.80;;;;;;5006356;28;20036;-64
2021/04/04 00:07:36;;;;;;;25.13;4.20;;;10.70;50.70;;;;;;5022953;28;20033;-64
2021/04/04 00:10:07;;;;;;;25.02;4.13;;;10.80;50.80;;;;;;5005538;28;20099;-64
2021/04/04 00:12:32;;;;;;;18.98;3.90;;;10.80;50.70;;;;;;5011735;28;20034;-64
2021/04/04 00:14:58;;;;;;;29.08;4.63;;;10.80;50.70;;;;;;5010794;28;20962;-64
2021/04/04 00:17:23;;;;;;;21.52;4.00;;;10.80;50.60;;;;;;5004883;28;20132;-64
2021/04/04 00:19:49;;;;;;;22.77;3.80;;;10.80;50.60;;;;;;5012034;28;20060;-64
2021/04/04 00:22:17;;;;;;;24.38;4.63;;;10.80;50.50;;;;;;5005915;28;20034;-61
2021/04/04 00:24:45;;;;;;;16.20;3.33;;;10.80;50.50;;;;;;5005163;28;20057;-61
2021/04/04 00:27:10;;;;;;;23.58;3.50;;;10.80;50.50;;;;;;5005509;28;20040;-61
2021/04/04 00:29:36;;;;;;;17.17;3.50;;;10.80;50.50;;;;;;5015620;28;20446;-61
2021/04/04 00:32:04;;;;;;;18.83;3.55;;;10.70;50.40;;;;;;5009920;28;23876;-61
2021/04/04 00:34:31;;;;;;;22.27;3.38;;;10.70;50.40;;;;;;5003833;28;20041;-61
2021/04/04 00:36:57;;;;;;;28.70;5.03;;;10.80;50.50;;;;;;5007449;28;20034;-61
2021/04/04 00:39:27;;;;;;;17.95;3.78;;;10.80;50.50;;;;;;5008332;28;20388;-61
2021/04/04 00:41:55;;;;;;;18.77;3.47;;;10.80;50.50;;;;;;5004290;28;20037;-61
2021/04/04 00:44:21;;;;;;;18.38;3.88;;;10.80;50.50;;;;;;5005289;28;20032;-61
2021/04/04 00:46:49;;;;;;;27.95;4.72;;;10.80;50.40;;;;;;5009670;28;20037;-61
2021/04/04 00:49:14;;;;;;;29.02;4.82;;;10.80;50.30;;;;;;5003951;28;20088;-61
2021/04/04 00:51:43;;;;;;;19.33;3.78;;;10.80;50.20;;;;;;5010337;28;20045;-62
2021/04/04 00:54:09;;;;;;;22.02;3.60;;;10.90;50.30;;;;;;5009682;28;20070;-61
2021/04/04 00:56:35;;;;;;;23.92;3.28;;;10.90;50.30;;;;;;5011787;28;20037;-62
2021/04/04 00:59:04;;;;;;;21.33;3.80;;;10.90;50.20;;;;;;5005846;28;20047;-61
2021/04/04 01:01:32;;;;;;;17.90;3.85;;;10.90;50.30;;;;;;5011478;28;20041;-62
2021/04/04 01:04:00;;;;;;;15.77;3.28;;;10.90;50.40;;;;;;5007465;28;20805;-61
2021/04/04 01:06:26;;;;;;;25.45;3.70;;;10.90;50.30;;;;;;5008737;28;20049;-61
2021/04/04 01:08:54;;;;;;;24.85;4.28;;;10.90;50.20;;;;;;5010962;28;20068;-64
2021/04/04 01:11:30;;;;;;;18.58;4.25;;;10.90;50.20;;;;;;5009742;28;20053;-64
2021/04/04 01:14:19;;;;;;;25.00;3.50;;;10.90;50.20;;;;;;5015115;28;20126;-64
2021/04/04 01:16:53;;;;;;;27.40;3.90;;;10.90;50.10;;;;;;5002401;28;20411;-64
2021/04/04 01:19:41;;;;;;;23.60;3.75;;;11.00;50.20;;;;;;5012230;28;20266;-64
2021/04/04 01:22:37;;;;;;;22.55;4.38;;;10.90;50.10;;;;;;5018017;28;20042;-64
2021/04/04 01:25:07;;;;;;;21.17;3.60;;;10.90;50.10;;;;;;5016348;28;20041;-64
2021/04/04 01:27:57;;;;;;;23.83;3.60;;;10.90;50.20;;;;;;5007239;28;20462;-64
2021/04/04 01:30:31;;;;;;;18.63;3.60;;;10.90;50.10;;;;;;5010094;28;20049;-64
2021/04/04 01:32:58;;;;;;;22.48;3.72;;;10.90;50.10;;;;;;5007988;28;20045;-64
2021/04/04 01:35:30;;;;;;;20.10;3.72;;;11.00;50.20;;;;;;5005115;28;20083;-64
2021/04/04 01:38:00;;;;;;;28.20;3.47;;;11.00;50.20;;;;;;5011614;28;20133;-63
2021/04/04 01:40:30;;;;;;;17.08;3.67;;;11.00;50.20;;;;;;4997891;28;20053;-63
2021/04/04 01:42:59;;;;;;;22.95;3.75;;;11.00;50.10;;;;;;5000890;28;20258;-64
2021/04/04 01:45:25;;;;;;;16.98;3.38;;;11.00;50.10;;;;;;4998340;28;20636;-63
2021/04/04 01:47:54;;;;;;;16.98;3.22;;;11.00;50.20;;;;;;5007438;28;20049;-63
2021/04/04 01:50:23;;;;;;;24.35;3.85;;;11.00;50.20;;;;;;5006810;28;20046;-64
2021/04/04 01:52:50;;;;;;;25.75;3.42;;;11.00;50.10;;;;;;5007422;28;20049;-63
2021/04/04 01:55:18;;;;;;;9.55;3.05;;;11.00;50.10;;;;;;5008922;28;20084;-64
2021/04/04 01:57:46;;;;;;;24.25;3.55;;;11.00;50.00;;;;;;5007500;28;20092;-64
2021/04/04 02:00:14;;;;;;;17.05;3.45;;;11.00;50.10;;;;;;5008980;28;20132;-64
2021/04/04 02:02:42;;;;;;;15.30;3.35;;;11.00;50.10;;;;;;5001852;28;20120;-64
2021/04/04 02:05:08;;;;;;;16.08;3.28;;;11.00;50.10;;;;;;5008398;28;20038;-64
2021/04/04 02:07:38;;;;;;;18.08;3.42;;;11.00;50.20;;;;;;5010468;28;20045;-63
2021/04/04 02:10:07;;;;;;;18.50;3.78;;;10.90;50.20;;;;;;5007060;28;20037;-63
2021/04/04 02:12:34;;;;;;;15.43;3.08;;;10.90;50.30;;;;;;5022612;28;20560;-64
2021/04/04 02:15:06;;;;;;;14.95;3.50;;;10.90;50.40;;;;;;5008490;28;20038;-64
2021/04/04 02:17:34;;;;;;;19.73;3.80;;;11.00;50.50;;;;;;5010668;28;20040;-64
2021/04/04 02:20:03;;;;;;;24.30;3.67;;;11.00;50.50;;;;;;5008678;28;20107;-64
2021/04/04 02:22:37;;;;;;;16.35;3.25;;;11.00;50.60;;;;;;5004547;28;20112;-63
2021/04/04 02:25:04;;;;;;;19.13;3.58;;;11.00;50.60;;;;;;5009632;28;20517;-64
2021/04/04 02:27:32;;;;;;;18.75;3.28;;;11.00;50.70;;;;;;5001775;28;20096;-64
2021/04/04 02:29:57;;;;;;;21.92;4.82;;;11.00;50.90;;;;;;5007275;28;20569;-64
2021/04/04 02:32:25;;;;;;;27.42;3.75;;;11.00;51.00;;;;;;5004177;28;20041;-63
2021/04/04 02:34:57;;;;;;;24.35;3.92;;;10.90;51.00;;;;;;5011053;28;20042;-64
2021/04/04 02:37:23;;;;;;;14.95;3.55;;;11.00;51.10;;;;;;5012904;28;20991;-63
2021/04/04 02:40:01;;;;;;;16.70;4.20;;;11.00;51.10;;;;;;5012537;28;20496;-63
2021/04/04 02:42:29;;;;;;;24.30;3.50;;;10.90;51.10;;;;;;5007181;28;20106;-63
2021/04/04 02:45:02;;;;;;;25.73;3.72;;;10.90;51.20;;;;;;5005797;28;20571;-64
2021/04/04 02:48:05;;;;;;;16.17;3.95;;;10.90;51.30;;;;;;5000336;28;20181;-64
2021/04/04 02:50:34;;;;;;;12.20;3.40;;;10.90;51.30;;;;;;5005510;28;20442;-64
2021/04/04 02:53:03;;;;;;;17.10;3.65;;;10.90;51.40;;;;;;5003993;28;21783;-63
2021/04/04 02:55:37;;;;;;;16.23;3.55;;;10.90;51.60;;;;;;5004222;28;20138;-64
2021/04/04 02:58:09;;;;;;;18.20;3.70;;;10.90;51.60;;;;;;5010559;28;20663;-64
2021/04/04 03:00:39;;;;;;;14.68;3.40;;;10.90;51.70;;;;;;4988561;28;20045;-63
2021/04/04 03:03:09;;;;;;;16.45;3.58;;;10.90;51.80;;;;;;5008736;28;20037;-63
2021/04/04 03:05:35;;;;;;;17.60;3.72;;;10.90;51.90;;;;;;5002070;28;20041;-63
2021/04/04 03:08:06;;;;;;;21.23;4.05;;;10.90;52.00;;;;;;5005484;28;20076;-63
2021/04/04 03:10:35;;;;;;;25.95;4.28;;;10.90;52.00;;;;;;4998743;28;20049;-64
2021/04/04 03:13:04;;;;;;;13.90;3.65;;;10.90;52.10;;;;;;5008136;28;20037;-64
2021/04/04 03:15:33;;;;;;;22.50;3.92;;;10.90;52.20;;;;;;5009875;28;20706;-63
2021/04/04 03:18:00;;;;;;;19.63;4.15;;;10.90;52.40;;;;;;5007817;28;20051;-63
2021/04/04 03:20:29;;;;;;;18.40;3.78;;;10.80;52.50;;;;;;5004355;28;20091;-63
2021/04/04 03:22:59;;;;;;;14.60;4.10;;;10.80;52.70;;;;;;5007750;28;20038;-63
2021/04/04 03:25:27;;;;;;;27.83;4.05;;;10.80;52.80;;;;;;5007283;28;20034;-63
2021/04/04 03:27:59;;;;;;;21.15;4.50;;;10.80;53.00;;;;;;5010732;28;20503;-63
2021/04/04 03:30:35;;;;;;;26.85;4.60;;;10.80;53.20;;;;;;4999961;28;20086;-63
2021/04/04 03:33:04;;;;;;;24.15;4.15;;;10.80;53.30;;;;;;4997902;28;20037;-64
2021/04/04 03:35:31;;;;;;;27.08;4.97;;;10.70;53.30;;;;;;5003006;28;20026;-64
2021/04/04 03:37:59;;;;;;;18.90;4.18;;;10.70;53.50;;;;;;5000049;28;20499;-63
2021/04/04 03:40:25;;;;;;;21.85;4.18;;;10.70;53.70;;;;;;5009339;28;20050;-63
2021/04/04 03:42:52;;;;;;;23.20;4.18;;;10.70;53.90;;;;;;5011986;28;20497;-63
2021/04/04 03:45:19;;;;;;;21.95;4.38;;;10.70;54.00;;;;;;5005855;28;20045;-63
2021/04/04 03:47:49;;;;;;;20.35;4.00;;;10.70;54.10;;;;;;5007994;28;20037;-63
2021/04/04 03:50:22;;;;;;;16.27;3.88;;;10.70;54.20;;;;;;5001440;28;20042;-63
2021/04/04 03:52:50;;;;;;;14.23;4.40;;;10.70;54.30;;;;;;5000262;28;20095;-63
2021/04/04 03:55:21;;;;;;;19.83;4.53;;;10.70;54.30;;;;;;5009822;28;20044;-64
2021/04/04 03:57:50;;;;;;;22.55;5.43;;;10.70;54.40;;;;;;5005362;28;20042;-64
2021/04/04 04:00:21;;;;;;;19.15;4.35;;;10.70;54.40;;;;;;5003901;28;20499;-64
2021/04/04 04:02:49;;;;;;;17.23;3.92;;;10.70;54.40;;;;;;4997092;23;20046;-62
2021/04/04 04:05:16;;;;;;;12.50;3.90;;;10.70;54.40;;;;;;4980363;28;20405;-61
2021/04/04 04:07:46;;;;;;;31.90;4.40;;;10.80;54.50;;;;;;4990299;28;20034;-62
2021/04/04 04:10:14;;;;;;;23.38;4.38;;;10.80;54.50;;;;;;4990939;28;20511;-62
2021/04/04 04:12:43;;;;;;;15.98;3.92;;;10.70;54.50;;;;;;4998103;28;20034;-63
2021/04/04 04:15:11;;;;;;;19.50;3.78;;;10.80;54.60;;;;;;4991810;28;20484;-63
2021/04/04 04:17:37;;;;;;;10.63;4.03;;;10.80;54.60;;;;;;4986986;28;20034;-63
2021/04/04 04:20:03;;;;;;;17.83;3.75;;;10.70;54.70;;;;;;4985135;28;20037;-61
2021/04/04 04:22:32;;;;;;;25.60;4.40;;;10.70;54.70;;;;;;4983997;28;20054;-61
2021/04/04 04:24:59;;;;;;;23.15;4.38;;;10.70;54.80;;;;;;4988901;28;20069;-62
2021/04/04 04:27:26;;;;;;;16.92;3.90;;;10.70;54.90;;;;;;4982638;28;20800;-62
2021/04/04 04:29:53;;;;;;;14.95;3.42;;;10.60;54.90;;;;;;4981331;28;20040;-62
2021/04/04 04:32:22;;;;;;;24.42;4.38;;;10.60;55.00;;;;;;4981453;28;20448;-63
2021/04/04 04:34:50;;;;;;;15.82;4.10;;;10.60;55.10;;;;;;4991452;28;20065;-62
2021/04/04 04:37:17;;;;;;;17.10;3.70;;;10.60;55.20;;;;;;4984689;28;20738;-62
2021/04/04 04:39:43;;;;;;;20.65;4.10;;;10.60;55.30;;;;;;4988029;28;20483;-63
2021/04/04 04:42:11;;;;;;;28.77;4.70;;;10.60;55.30;;;;;;4979613;28;20035;-62
2021/04/04 04:44:43;;;;;;;21.52;4.53;;;10.50;55.40;;;;;;4984832;28;20038;-62
2021/04/04 04:47:17;;;;;;;18.13;3.65;;;10.50;55.50;;;;;;4985696;28;20036;-64
2021/04/04 04:49:48;;;;;;;21.83;3.88;;;10.50;55.60;;;;;;4989040;28;20129;-62
2021/04/04 04:52:24;;;;;;;23.05;4.63;;;10.50;55.70;;;;;;4989215;28;20577;-62
2021/04/04 04:54:49;;;;;;;22.50;4.45;;;10.50;55.80;;;;;;4988288;28;20040;-62
2021/04/04 04:57:16;;;;;;;20.48;4.70;;;10.50;55.80;;;;;;4979933;28;20030;-62
2021/04/04 04:59:46;;;;;;;20.35;4.97;;;10.50;55.90;;;;;;4981941;28;20153;-63
2021/04/04 05:02:13;;;;;;;20.70;5.20;;;10.50;56.00;;;;;;4988274;28;20121;-63
2021/04/04 05:04:39;;;;;;;21.63;5.35;;;10.60;56.00;;;;;;4985943;28;20030;-62
2021/04/04 05:07:10;;;;;;;28.60;6.45;;;10.60;56.10;;;;;;4987655;28;20044;-62
2021/04/04 05:09:36;;;;;;;24.63;5.45;;;10.60;56.20;;;;;;4988869;28;20089;-64
2021/04/04 05:12:06;;;;;;;24.27;5.18;;;10.60;56.10;;;;;;4983962;28;20092;-65
2021/04/04 05:14:37;;;;;;;16.45;5.28;;;10.60;56.20;;;;;;4986402;28;20077;-64
2021/04/04 05:17:10;;;;;;;25.38;5.40;;;10.60;56.30;;;;;;4983175;28;20646;-64
2021/04/04 05:19:38;;;;;;;25.80;5.00;;;10.60;56.30;;;;;;4977509;28;20041;-64
2021/04/04 05:22:04;;;;;;;18.23;5.30;;;10.60;56.50;;;;;;4988316;28;20208;-62
2021/04/04 05:24:30;;;;;;;21.63;5.25;;;10.60;56.50;;;;;;4989382;28;20496;-62
2021/04/04 05:26:56;;;;;;;15.70;4.63;;;10.60;56.60;;;;;;4991015;28;20057;-61
2021/04/04 05:29:23;;;;;;;20.55;4.38;;;10.50;56.60;;;;;;4986830;28;20188;-62
2021/04/04 05:31:51;;;;;;;24.27;5.43;;;10.60;56.70;;;;;;4993822;28;20040;-62
2021/04/04 05:34:20;;;;;;;15.20;5.03;;;10.60;56.90;;;;;;4984018;28;20033;-62
2021/04/04 05:36:52;;;;;;;21.60;4.70;;;10.60;56.90;;;;;;5000813;28;20042;-62
2021/04/04 05:39:19;;;;;;;17.08;5.03;;;10.60;56.90;;;;;;4991902;28;20496;-62
2021/04/04 05:41:48;;;;;;;22.00;5.03;;;10.60;57.00;;;;;;4987258;28;20091;-62
2021/04/04 05:44:17;;;;;;;23.55;5.13;;;10.70;57.10;;;;;;4984422;28;20065;-61
2021/04/04 05:46:49;;;;;;;23.73;5.25;;;10.70;57.20;;;;;;4994594;28;20583;-61
2021/04/04 05:49:25;;;;;;;19.73;5.00;;;10.70;57.10;;;;;;4993943;28;20042;-63
2021/04/04 05:51:58;;;;;;;19.83;5.32;;;10.70;57.20;;;;;;4987791;28;20496;-63
2021/04/04 05:54:54;;;;;;;24.65;5.00;;;10.70;57.30;;;;;;4993691;28;20046;-62
2021/04/04 05:57:41;;;;;;;16.67;5.15;;;10.70;57.20;;;;;;4986831;28;20261;-63
2021/04/04 06:00:10;;;;;;;29.45;5.68;;;10.70;57.20;;;;;;4985447;28;20116;-61
2021/04/04 06:03:14;;;;;;;23.35;5.13;;;10.70;57.30;;;;;;4975630;28;20137;-62
2021/04/04 06:06:01;;;;;;;21.23;4.47;;;10.70;57.30;;;;;;4979194;28;20045;-63
2021/04/04 06:08:49;;;;;;;17.45;4.72;;;10.70;57.40;;;;;;4978979;28;20046;-63
2021/04/04 06:11:53;;;;;;;23.65;5.80;;;10.70;58.00;;;;;;4971902;28;20069;-63
2021/04/04 06:14:56;;;;;;;24.15;4.70;;;10.70;57.40;;;;;;4972780;28;20542;-63
2021/04/04 06:17:51;;;;;;;20.50;4.40;;;10.70;57.40;;;;;;4987593;28;20046;-64
2021/04/04 06:20:43;;;;;;;23.77;4.95;;;10.70;57.50;;;;;;4972461;28;20586;-63
2021/04/04 06:23:10;;;;;;;21.77;5.20;;;10.70;57.50;;;;;;4976513;28;21484;-63
2021/04/04 06:25:45;;;;;;;23.77;5.05;;;10.70;57.60;;;;;;4977642;28;20404;-62
2021/04/04 06:28:28;;;;;;;21.45;4.88;;;10.70;57.70;;;;;;4975143;28;20837;-63
2021/04/04 06:31:14;;;;;;;28.60;5.65;;;10.80;57.60;;;;;;4978213;28;20534;-62
2021/04/04 06:33:49;;;;;;;19.73;5.53;;;10.80;57.60;;;;;;4966364;28;20630;-62
2021/04/04 06:37:00;;;;;;;16.75;5.72;;;10.80;57.60;;;;;;4975624;28;20045;-63
2021/04/04 06:39:52;;;;;;;21.73;5.18;;;10.90;57.60;;;;;;4956096;28;20583;-63
2021/04/04 06:42:27;;;;;;;20.25;5.00;;;10.90;57.50;;;;;;4969108;28;20124;-64
2021/04/04 06:45:33;;;;;;;18.38;5.03;;;10.90;57.50;;;;;;4970296;28;20034;-62
2021/04/04 06:48:18;;;;;;;23.45;5.38;;;11.00;57.50;;;;;;4970834;28;20269;-62
2021/04/04 06:50:48;;;;;;;22.02;5.60;;;11.00;57.50;;;;;;4979083;28;20042;-64
2021/04/04 06:53:52;;;;;;;23.38;6.35;;;11.00;57.40;;;;;;4971032;28;21278;-62
2021/04/04 06:56:34;;;;;;;20.83;6.30;;;11.00;57.30;;;;;;4970479;28;20860;-63
2021/04/04 06:59:26;;;;;;;23.45;6.88;;;11.00;57.20;;;;;;4968812;28;20049;-63
2021/04/04 07:02:06;;;;;;;21.45;7.00;;;11.10;57.10;;;;;;4977452;28;20037;-62
2021/04/04 07:04:39;;;;;;;21.63;7.45;;;11.10;57.00;;;;;;4986570;28;20064;-62
2021/04/04 07:07:41;;;;;;;17.27;5.75;;;11.20;56.90;;;;;;4968236;28;20038;-61
2021/04/04 07:10:25;;;;;;;24.88;6.68;;;11.20;56.70;;;;;;4964868;28;20161;-63
2021/04/04 07:13:29;;;;;;;19.23;6.80;;;11.30;56.50;;;;;;4960080;28;20093;-62
2021/04/04 07:16:24;;;;;;;20.60;6.28;;;11.30;56.30;;;;;;4968082;28;20040;-63
2021/04/04 07:19:27;;;;;;;24.42;6.60;;;11.30;56.10;;;;;;4974205;28;20026;-63
2021/04/04 07:22:16;;;;;;;21.98;6.50;;;11.40;55.90;;;;;;4977300;28;20629;-62
2021/04/04 07:25:03;;;;;;;18.15;6.93;;;11.30;55.70;;;;;;4983553;28;20116;-62
2021/04/04 07:27:40;;;;;;;19.85;6.05;;;11.40;55.50;;;;;;4988371;28;20140;-61
2021/04/04 07:30:33;;;;;;;22.63;6.68;;;11.40;55.30;;;;;;4954277;28;20070;-64
2021/04/04 07:33:17;;;;;;;17.52;6.68;;;11.40;55.20;;;;;;4969639;28;20037;-62
2021/04/04 07:35:47;;;;;;;16.65;6.07;;;11.50;55.10;;;;;;4974238;28;20050;-64
2021/04/04 07:38:25;;;;;;;14.90;5.88;;;11.50;55.10;;;;;;4973671;28;20042;-63
2021/04/04 07:40:54;;;;;;;18.10;6.43;;;11.60;55.00;;;;;;4958737;28;20117;-63
2021/04/04 07:43:51;;;;;;;16.40;6.97;;;11.60;54.80;;;;;;4949907;28;20041;-64
2021/04/04 07:46:27;;;;;;;15.88;6.93;;;11.70;54.60;;;;;;4978270;28;20038;-63
2021/04/04 07:49:08;;;;;;;19.83;6.57;;;11.70;54.30;;;;;;4970160;28;20034;-62
2021/04/04 07:51:38;;;;;;;18.35;6.45;;;11.80;54.10;;;;;;4968891;28;20099;-63
2021/04/04 07:54:22;;;;;;;19.90;5.88;;;11.80;53.70;;;;;;4969524;28;20073;-63
2021/04/04 07:57:04;;;;;;;20.02;5.72;;;11.80;53.30;;;;;;4993634;28;20046;-62
2021/04/04 07:59:37;;;;;;;25.38;7.32;;;11.80;53.40;;;;;;4982884;28;20046;-62
2021/04/04 08:02:08;;;;;;;24.80;6.40;;;11.80;53.20;;;;;;4982989;28;20050;-64
2021/04/04 08:04:49;;;;;;;14.50;5.80;;;11.90;53.10;;;;;;4977061;28;20508;-62
2021/04/04 08:07:55;;;;;;;21.80;6.05;;;11.90;52.90;;;;;;4967783;28;20436;-62
2021/04/04 08:10:55;;;;;;;19.80;5.85;;;11.90;52.70;;;;;;4974228;28;20507;-64
2021/04/04 08:13:24;;;;;;;17.60;5.50;;;11.90;52.50;;;;;;4982507;28;20260;-63
2021/04/04 08:16:14;;;;;;;13.82;5.82;;;12.00;52.50;;;;;;4973841;28;20105;-63
2021/04/04 08:18:40;;;;;;;14.52;5.68;;;12.00;52.40;;;;;;4977727;28;20065;-63
2021/04/04 08:21:17;;;;;;;23.02;6.35;;;12.00;52.40;;;;;;4974918;28;20542;-62
2021/04/04 08:23:51;;;;;;;26.08;6.68;;;12.10;52.20;;;;;;4955949;28;20224;-61
2021/04/04 08:27:03;;;;;;;16.52;6.18;;;12.10;52.10;;;;;;4962819;28;21107;-63
2021/04/04 08:29:39;;;;;;;18.88;6.00;;;12.20;52.00;;;;;;4957758;28;20100;-63
2021/04/04 08:32:11;;;;;;;18.27;5.82;;;12.30;51.70;;;;;;4980232;28;20130;-62
2021/04/04 08:34:42;;;;;;;20.38;7.00;;;12.30;51.70;;;;;;4993261;28;20615;-61
2021/04/04 08:37:16;;;;;;;20.27;5.80;;;12.40;51.60;;;;;;4988393;28;20034;-64
2021/04/04 08:39:53;;;;;;;16.10;6.63;;;12.40;51.50;;;;;;4990381;28;20484;-63
2021/04/04 08:42:22;;;;;;;17.80;6.55;;;12.40;51.40;;;;;;4982742;28;20743;-64
2021/04/04 08:44:57;;;;;;;18.63;5.78;;;12.40;51.40;;;;;;4994441;28;20049;-62
2021/04/04 08:47:31;;;;;;;13.13;5.40;;;12.50;51.30;;;;;;4982513;28;20381;-62
2021/04/04 08:49:59;;;;;;;19.02;6.45;;;12.50;51.20;;;;;;4983400;28;20041;-63
2021/04/04 08:52:40;;;;;;;15.85;5.10;;;12.60;51.10;;;;;;4982965;28;20385;-63
2021/04/04 08:55:12;;;;;;;15.18;5.65;;;12.70;50.90;;;;;;4980176;28;20056;-62
2021/04/04 08:57:45;;;;;;;21.80;5.85;;;12.70;50.60;;;;;;4980640;28;20035;-64
2021/04/04 09:00:13;;;;;;;16.38;4.85;;;12.70;50.70;;;;;;4976241;28;20058;-63
2021/04/04 09:02:43;;;;;;;21.42;6.10;;;12.70;50.70;;;;;;4976107;28;20042;-63
2021/04/04 09:05:11;;;;;;;17.88;5.70;;;12.80;50.60;;;;;;4980541;28;20041;-63
2021/04/04 09:07:44;;;;;;;19.60;5.63;;;12.80;50.60;;;;;;4982613;28;20063;-63
2021/04/04 09:10:17;;;;;;;21.50;5.57;;;12.80;50.50;;;;;;4983448;28;20061;-62
2021/04/04 09:12:44;;;;;;;18.02;4.43;;;12.80;50.80;;;;;;4983541;28;20555;-63
2021/04/04 09:15:13;;;;;;;14.40;5.40;;;12.90;50.80;;;;;;4981850;28;20400;-63
2021/04/04 09:17:52;;;;;;;18.90;4.70;;;12.90;50.40;;;;;;4974825;28;20180;-63
2021/04/04 09:20:33;;;;;;;15.10;5.07;;;12.90;50.30;;;;;;4970365;28;20050;-63
2021/04/04 09:23:01;;;;;;;15.82;4.50;;;12.90;50.40;;;;;;4985428;28;20239;-63
2021/04/04 09:25:35;;;;;;;17.65;4.90;;;12.90;50.10;;;;;;4983730;28;20096;-63
2021/04/04 09:28:06;;;;;;;15.60;4.78;;;12.90;50.20;;;;;;4984980;28;20042;-63
2021/04/04 09:30:38;;;;;;;11.68;4.32;;;13.00;50.40;;;;;;4989966;28;20041;-63
2021/04/04 09:33:11;;;;;;;16.70;4.28;;;13.00;50.80;;;;;;4988469;28;20180;-62
2021/04/04 09:35:40;;;;;;;13.93;3.90;;;13.10;50.40;;;;;;4984545;28;20042;-63
2021/04/04 09:38:12;;;;;;;15.63;3.80;;;13.20;50.20;;;;;;4988121;28;20419;-63
2021/04/04 09:40:40;;;;;;;15.93;4.32;;;13.30;50.10;;;;;;4986284;28;20058;-62
2021/04/04 09:43:11;;;;;;;14.10;4.32;;;13.40;49.90;;;;;;4985893;28;20084;-63
2021/04/04 09:45:37;;;;;;;11.70;3.72;;;13.50;49.80;;;;;;4988364;28;20937;-62
2021/04/04 09:48:25;;;;;;;15.43;3.63;;;13.50;49.40;;;;;;4984410;28;21369;-63
2021/04/04 09:51:15;;;;;;;14.23;4.05;;;13.50;49.20;;;;;;4981617;28;20243;-64
2021/04/04 09:53:49;;;;;;;17.92;4.63;;;13.60;49.60;;;;;;4993672;28;20098;-62
2021/04/04 09:56:16;;;;;;;14.57;3.92;;;13.50;49.10;;;;;;4988731;28;20070;-62
2021/04/04 09:58:45;;;;;;;12.23;3.72;;;13.50;48.90;;;;;;4982892;28;20506;-63
2021/04/04 10:03:57;;;;;;;12.00;4.05;;;13.30;49.10;;;;;;4996255;28;20064;-64
2021/04/04 10:06:22;;;;;;;12.70;3.85;;;13.30;49.20;;;;;;5023260;28;20049;-64
2021/04/04 10:08:56;;;;;;;15.32;4.13;;;13.40;49.40;;;;;;5016006;28;20034;-64
2021/04/04 10:11:23;;;;;;;11.68;4.00;;;13.40;49.40;;;;;;5019495;28;20034;-64
2021/04/04 10:13:53;;;;;;;13.60;4.20;;;13.50;49.40;;;;;;5012684;28;20045;-64
2021/04/04 10:16:23;;;;;;;17.10;3.97;;;13.60;49.20;;;;;;5010916;28;22114;-64
2021/04/04 10:19:06;;;;;;;17.08;4.85;;;13.60;49.10;;;;;;5000985;28;20416;-64
2021/04/04 10:21:34;;;;;;;19.70;5.25;;;13.70;49.10;;;;;;4997833;28;20041;-65
2021/04/04 10:24:19;;;;;;;18.02;4.90;;;13.80;49.10;;;;;;5003794;28;20446;-64
2021/04/04 10:26:49;;;;;;;19.08;5.05;;;13.80;49.00;;;;;;5001420;28;20571;-64
2021/04/04 10:29:23;;;;;;;12.88;4.95;;;13.90;49.00;;;;;;5003676;28;20056;-64
2021/04/04 10:31:49;;;;;;;14.50;3.50;;;13.90;49.10;;;;;;5003060;28;20451;-64
2021/04/04 10:34:17;;;;;;;13.65;3.78;;;13.90;48.70;;;;;;5009905;28;20063;-64
2021/04/04 10:37:00;;;;;;;14.82;3.97;;;13.90;48.40;;;;;;5005180;28;20115;-64
2021/04/04 10:39:32;;;;;;;16.73;4.50;;;13.90;48.50;;;;;;4998930;28;20052;-63
2021/04/04 10:42:12;;;;;;;20.27;3.75;;;13.90;48.50;;;;;;5002952;28;20045;-64
2021/04/04 10:44:40;;;;;;;15.98;4.63;;;13.90;48.40;;;;;;5005338;28;24964;-64
2021/04/04 10:47:20;;;;;;;16.13;4.82;;;14.00;48.40;;;;;;4999255;28;20600;-64
2021/04/04 10:49:47;;;;;;;13.98;5.05;;;14.00;48.40;;;;;;5013996;28;20135;-64
2021/04/04 10:52:15;;;;;;;18.10;5.07;;;14.00;48.50;;;;;;5000870;28;20068;-64
2021/04/04 10:54:46;;;;;;;20.45;5.80;;;13.90;48.50;;;;;;5007938;28;20061;-64
2021/04/04 10:57:12;;;;;;;16.73;5.03;;;13.90;48.60;;;;;;5002577;28;20063;-63
2021/04/04 10:59:38;;;;;;;15.45;5.18;;;13.90;48.90;;;;;;5009273;28;20116;-65
2021/04/04 11:02:04;;;;;;;25.27;5.95;;;13.90;48.90;;;;;;4993647;28;20045;-64
2021/04/04 11:04:31;;;;;;;17.60;5.40;;;13.90;48.80;;;;;;5003586;28;20034;-64
2021/04/04 11:07:00;;;;;;;19.25;5.75;;;13.90;48.90;;;;;;5005059;28;20142;-64
2021/04/04 11:09:26;;;;;;;22.90;5.85;;;13.80;48.90;;;;;;4991749;28;20045;-64
2021/04/04 11:11:58;;;;;;;16.27;5.10;;;13.70;49.00;;;;;;4995050;28;20087;-64
2021/04/04 11:14:25;;;;;;;14.35;4.97;;;13.60;49.20;;;;;;4999485;28;20160;-64
2021/04/04 11:16:59;;;;;;;14.55;4.43;;;13.60;49.40;;;;;;5001076;28;20041;-64
2021/04/04 11:19:27;;;;;;;16.90;4.40;;;13.50;49.60;;;;;;5014849;28;20053;-63
2021/04/04 11:21:54;;;;;;;14.65;4.10;;;13.60;49.60;;;;;;5007983;28;20045;-64
2021/04/04 11:24:23;;;;;;;19.45;4.32;;;13.60;49.50;;;;;;5003923;28;20540;-65
2021/04/04 11:26:58;;;;;;;16.52;4.53;;;13.70;49.60;;;;;;5009630;28;20040;-65
2021/04/04 11:29:27;;;;;;;16.90;4.32;;;13.90;49.70;;;;;;5007034;28;20045;-64
2021/04/04 11:32:13;;;;;;;12.40;4.15;;;14.00;49.50;;;;;;5007519;28;21446;-64
2021/04/04 11:34:43;;;;;;;15.10;4.60;;;14.10;49.20;;;;;;5001882;28;20072;-64
2021/04/04 11:37:16;;;;;;;15.75;4.30;;;14.20;49.10;;;;;;5002401;28;20635;-63
2021/04/04 11:40:19;;;;;;;21.52;4.57;;;14.20;48.90;;;;;;5000564;28;20769;-64
2021/04/04 11:42:48;;;;;;;8.95;3.65;;;14.10;48.90;;;;;;5008858;28;20703;-64
2021/04/04 11:45:33;;;;;;;16.05;4.88;;;14.10;49.00;;;;;;5005474;28;20207;-64
2021/04/04 11:48:27;;;;;;;20.65;4.35;;;14.00;48.90;;;;;;5017094;28;20669;-64
2021/04/04 11:50:56;;;;;;;12.93;4.65;;;14.00;48.90;;;;;;4996991;28;20050;-64
2021/04/04 11:53:46;;;;;;;16.30;4.63;;;13.90;49.10;;;;;;5016950;28;20145;-65
2021/04/04 11:56:43;;;;;;;12.95;3.83;;;13.90;49.30;;;;;;5005297;28;20033;-64
2021/04/04 11:59:12;;;;;;;10.07;3.50;;;14.00;49.60;;;;;;4996461;28;20056;-64
2021/04/04 12:01:38;;;;;;;8.77;3.00;;;14.10;49.50;;;;;;5001481;28;20052;-64
2021/04/04 12:04:57;;;;;;;21.25;4.78;;;14.20;48.70;;;;;;4999610;28;20049;-64
2021/04/04 12:07:21;;;;;;;15.85;3.90;;;14.10;48.50;;;;;;5004825;28;20044;-64
2021/04/04 12:09:49;;;;;;;13.20;2.95;;;14.10;48.60;;;;;;5004681;28;20056;-64
2021/04/04 12:12:15;;;;;;;16.08;3.55;;;14.10;48.40;;;;;;5000216;28;20770;-64
2021/04/04 12:14:57;;;;;;;12.15;2.92;;;14.20;48.40;;;;;;5022852;28;20034;-63
2021/04/04 12:17:25;;;;;;;14.25;3.30;;;14.30;48.20;;;;;;4994918;28;20048;-64
2021/04/04 12:19:54;;;;;;;13.02;2.65;;;14.50;48.00;;;;;;4992305;28;20116;-64
2021/04/04 12:22:34;;;;;;;18.98;3.53;;;14.60;47.80;;;;;;5010070;28;20029;-63
2021/04/04 12:25:02;;;;;;;12.40;3.13;;;14.60;47.50;;;;;;5009621;28;20072;-63
2021/04/04 12:27:32;;;;;;;14.27;2.78;;;14.70;47.30;;;;;;5003896;28;20077;-64
2021/04/04 12:29:58;;;;;;;8.45;2.42;;;14.70;47.30;;;;;;5007507;28;20044;-65
2021/04/04 12:32:25;;;;;;;13.23;3.22;;;14.70;47.20;;;;;;4993435;28;20025;-64
2021/04/04 12:34:55;;;;;;;11.80;3.30;;;14.70;47.00;;;;;;5004334;28;20030;-63
2021/04/04 12:37:22;;;;;;;15.68;3.38;;;14.70;47.00;;;;;;4994688;28;20057;-70
2021/04/04 12:39:52;;;;;;;11.65;3.85;;;14.70;47.20;;;;;;5009959;28;20608;-65
2021/04/04 12:42:26;;;;;;;16.45;4.13;;;14.70;47.00;;;;;;5012600;28;20084;-64
2021/04/04 12:44:51;;;;;;;17.65;4.50;;;14.70;47.00;;;;;;5002359;28;20525;-64
2021/04/04 12:47:24;;;;;;;14.05;4.05;;;14.60;47.20;;;;;;5002969;28;20036;-64
2021/04/04 12:50:06;;;;;;;20.70;4.18;;;14.60;47.40;;;;;;4993763;28;20149;-63
2021/04/04 12:52:48;;;;;;;13.35;4.10;;;14.60;47.40;;;;;;4995158;28;20407;-65
2021/04/04 12:55:33;;;;;;;16.25;4.43;;;14.60;47.30;;;;;;4995656;28;21932;-66
2021/04/04 12:58:03;;;;;;;20.23;4.53;;;14.50;47.10;;;;;;5003265;28;20128;-63
2021/04/04 13:00:45;;;;;;;16.13;4.82;;;14.40;47.20;;;;;;5016037;28;20034;-63
2021/04/04 13:03:13;;;;;;;19.35;4.80;;;14.20;47.90;;;;;;4999385;28;20049;-64
2021/04/04 13:05:45;;;;;;;22.13;4.82;;;14.20;47.60;;;;;;5001285;28;20036;-64
2021/04/04 13:08:22;;;;;;;16.75;4.07;;;14.10;47.80;;;;;;5008943;28;20033;-64
2021/04/04 13:11:04;;;;;;;13.75;3.70;;;14.10;48.10;;;;;;5011290;28;20463;-64
2021/04/04 13:13:33;;;;;;;13.93;3.70;;;14.10;48.00;;;;;;4995471;28;20041;-64